Adolph, Minnesota
Current Conditions -  °F | °C
As of 2:55 AM on Monday 20 Oct 2014 (Local Time) from KDLH Reporting Station
Clear Clear  
Wind Chill: 41°   Ceiling: Unl
Heat Index: 47°   Visibility: 10mi
Dew Point: 40°   Wind: 13mph
Humidity: 77%   Direction: 310°NW
Pressure: 29.83"   Gusts: NA
Location:  46.78°N, 92.28°W
Report Text: KDLH 200755Z 31011KT 10SM CLR 08/04 A2983 RMK AO2 SLP108 T00830044
Loading
Personal Weather Stations






























Interactive Weather Map
Tropical Storm Tracking
New forecast layout! Learn more

10-Day Weather Forecast

Advertisements
Track Severe Weather on mobile